Time;durP1;ratioP1;P1;durP2;ratioP2;P2;SDS_P1;SDS_P2;PMS_P1;PMS_P2;Temp;Humidity;BMP_temperature;BMP_pressure;BME280_temperature;BME280_humidity;BME280_pressure;Samples;Min_cycle;Max_cycle;Signal;HPM_P1;HPM_P2
2022/04/05 00:01:23;;;;;;;;;;;;;;;;;;5002814;28;20300;-71
2022/04/05 00:03:49;;;;;;;;;;;;;;;;;;5020581;28;20465;-71
2022/04/05 00:06:15;;;;;;;;;;;;;;;;;;5022647;28;19917;-71
2022/04/05 00:08:41;;;;;;;;;;;;;;;;;;5011979;28;20474;-70
2022/04/05 00:11:07;;;;;;;;;;;;;;;;;;5030974;28;20010;-70
2022/04/05 00:13:33;;;;;;;;;;;;;;;;;;5007792;28;19932;-71
2022/04/05 00:15:59;;;;;;;;;;;;;;;;;;5011261;28;20154;-70
2022/04/05 00:18:25;;;;;;;;;;;;;;;;;;5007807;28;19925;-70
2022/04/05 00:20:51;;;;;;;;;;;;;;;;;;5008914;28;20323;-70
2022/04/05 00:23:17;;;;;;;;;;;;;;;;;;5005444;28;19928;-70
2022/04/05 00:25:43;;;;;;;;;;;;;;;;;;5003038;28;19920;-71
2022/04/05 00:28:09;;;;;;;;;;;;;;;;;;5001288;28;19926;-71
2022/04/05 00:30:35;;;;;;;;;;;;;;;;;;5001877;28;20001;-70
2022/04/05 00:33:01;;;;;;;;;;;;;;;;;;5002730;28;19937;-70
2022/04/05 00:35:27;;;;;;;;;;;;;;;;;;4999612;28;19921;-71
2022/04/05 00:37:53;;;;;;;;;;;;;;;;;;5000895;28;20005;-70
2022/04/05 00:40:20;;;;;;;;;;;;;;;;;;4999157;28;20275;-70
2022/04/05 00:42:46;;;;;;;;;;;;;;;;;;5003972;28;19921;-71
2022/04/05 00:45:15;;;;;;;;;;;;;;;;;;5002207;28;20714;-71
2022/04/05 00:47:42;;;;;;;;;;;;;;;;;;5002106;28;19917;-71
2022/04/05 00:50:08;;;;;;;;;;;;;;;;;;5005611;28;19924;-71
2022/04/05 00:52:34;;;;;;;;;;;;;;;;;;5005967;28;19922;-70
2022/04/05 00:55:00;;;;;;;;;;;;;;;;;;5006272;28;19923;-71
2022/04/05 00:57:26;;;;;;;;;;;;;;;;;;4997890;28;20284;-71
2022/04/05 00:59:52;;;;;;;;;;;;;;;;;;5006199;28;20375;-71
2022/04/05 01:02:18;;;;;;;;;;;;;;;;;;5004106;28;19921;-71
2022/04/05 01:04:45;;;;;;;;;;;;;;;;;;5001701;28;19917;-71
2022/04/05 01:07:11;;;;;;;;;;;;;;;;;;4998908;28;20797;-72
2022/04/05 01:09:37;;;;;;;;;;;;;;;;;;4999674;28;20340;-72
2022/04/05 01:12:03;;;;;;;;;;;;;;;;;;5003560;28;19929;-71
2022/04/05 01:14:29;;;;;;;;;;;;;;;;;;5000501;28;19954;-71
2022/04/05 01:16:55;;;;;;;;;;;;;;;;;;5002444;28;20485;-71
2022/04/05 01:19:21;;;;;;;;;;;;;;;;;;5017650;28;20252;-71
2022/04/05 01:21:49;;;;;;;;;;;;;;;;;;5003307;28;21392;-71
2022/04/05 01:24:15;;;;;;;;;;;;;;;;;;5015549;28;19916;-71
2022/04/05 01:26:41;;;;;;;;;;;;;;;;;;5023882;28;20377;-71
2022/04/05 01:29:07;;;;;;;;;;;;;;;;;;5021053;28;19948;-71
2022/04/05 01:31:33;;;;;;;;;;;;;;;;;;5017446;28;19928;-71
2022/04/05 01:33:59;;;;;;;;;;;;;;;;;;5020731;28;19921;-71
2022/04/05 01:36:25;;;;;;;;;;;;;;;;;;5004839;28;19923;-71
2022/04/05 01:38:51;;;;;;;;;;;;;;;;;;5017716;28;20014;-71
2022/04/05 01:41:17;;;;;;;;;;;;;;;;;;5022220;28;19921;-71
2022/04/05 01:43:43;;;;;;;;;;;;;;;;;;5007713;28;20362;-71
2022/04/05 01:46:09;;;;;;;;;;;;;;;;;;5021394;28;19917;-71
2022/04/05 01:48:35;;;;;;;;;;;;;;;;;;5022655;28;19917;-71
2022/04/05 01:51:01;;;;;;;;;;;;;;;;;;5009235;28;20356;-71
2022/04/05 01:53:27;;;;;;;;;;;;;;;;;;5006949;28;19929;-71
2022/04/05 01:55:53;;;;;;;;;;;;;;;;;;5023264;28;19917;-71
2022/04/05 01:58:19;;;;;;;;;;;;;;;;;;5018066;28;19969;-71
2022/04/05 02:00:45;;;;;;;;;;;;;;;;;;5016333;28;19916;-71
2022/04/05 02:03:11;;;;;;;;;;;;;;;;;;5008061;28;19982;-71
2022/04/05 02:05:38;;;;;;;;;;;;;;;;;;5012832;28;19963;-70
2022/04/05 02:08:04;;;;;;;;;;;;;;;;;;5026125;28;20690;-70
2022/04/05 02:10:30;;;;;;;;;;;;;;;;;;5011790;28;20002;-71
2022/04/05 02:12:56;;;;;;;;;;;;;;;;;;5019015;28;19971;-71
2022/04/05 02:15:22;;;;;;;;;;;;;;;;;;5005550;28;19963;-70
2022/04/05 02:17:48;;;;;;;;;;;;;;;;;;5015783;28;20280;-70
2022/04/05 02:20:15;;;;;;;;;;;;;;;;;;5009081;28;20217;-71
2022/04/05 02:22:41;;;;;;;;;;;;;;;;;;5022234;28;20457;-71
2022/04/05 02:25:07;;;;;;;;;;;;;;;;;;5008256;28;20383;-70
2022/04/05 02:27:33;;;;;;;;;;;;;;;;;;5013759;28;19917;-71
2022/04/05 02:29:59;;;;;;;;;;;;;;;;;;5018145;28;19956;-70
2022/04/05 02:32:25;;;;;;;;;;;;;;;;;;4997336;28;19921;-71
2022/04/05 02:34:51;;;;;;;;;;;;;;;;;;5018736;28;20164;-70
2022/04/05 02:37:17;;;;;;;;;;;;;;;;;;5013027;28;19928;-70
2022/04/05 02:39:43;;;;;;;;;;;;;;;;;;5016355;28;20032;-70
2022/04/05 02:42:09;;;;;;;;;;;;;;;;;;5019503;28;20654;-71
2022/04/05 02:44:35;;;;;;;;;;;;;;;;;;5009239;28;19917;-71
2022/04/05 02:47:02;;;;;;;;;;;;;;;;;;4999647;28;20651;-71
2022/04/05 02:49:28;;;;;;;;;;;;;;;;;;5014012;28;20712;-71
2022/04/05 02:51:54;;;;;;;;;;;;;;;;;;5019375;28;19970;-70
2022/04/05 02:54:21;;;;;;;;;;;;;;;;;;5021922;28;20383;-70
2022/04/05 02:56:47;;;;;;;;;;;;;;;;;;5025652;28;19917;-70
2022/04/05 02:59:13;;;;;;;;;;;;;;;;;;5019236;28;19923;-70
2022/04/05 03:01:39;;;;;;;;;;;;;;;;;;5008868;28;19921;-71
2022/04/05 03:04:05;;;;;;;;;;;;;;;;;;5009631;28;19928;-71
2022/04/05 03:06:32;;;;;;;;;;;;;;;;;;5019484;28;19924;-70
2022/04/05 03:08:58;;;;;;;;;;;;;;;;;;5019464;28;20654;-71
2022/04/05 03:11:25;;;;;;;;;;;;;;;;;;5016388;28;19918;-71
2022/04/05 03:13:51;;;;;;;;;;;;;;;;;;5014221;28;20019;-71
2022/04/05 03:16:17;;;;;;;;;;;;;;;;;;5012331;28;19947;-71
2022/04/05 03:18:46;;;;;;;;;;;;;;;;;;5016451;28;19932;-72
2022/04/05 03:21:12;;;;;;;;;;;;;;;;;;4997959;28;19917;-71
2022/04/05 03:23:38;;;;;;;;;;;;;;;;;;5020924;28;19970;-71
2022/04/05 03:26:04;;;;;;;;;;;;;;;;;;5024086;28;19921;-71
2022/04/05 03:28:29;;;;;;;;;;;;;;;;;;5023526;28;20642;-71
2022/04/05 03:30:55;;;;;;;;;;;;;;;;;;5023064;28;19937;-71
2022/04/05 03:33:21;;;;;;;;;;;;;;;;;;5007391;28;19920;-71
2022/04/05 03:35:47;;;;;;;;;;;;;;;;;;5020941;28;20490;-71
2022/04/05 03:38:13;;;;;;;;;;;;;;;;;;5019805;28;19916;-71
2022/04/05 03:40:39;;;;;;;;;;;;;;;;;;5011999;28;20338;-71
2022/04/05 03:43:07;;;;;;;;;;;;;;;;;;5021442;28;19932;-71
2022/04/05 03:45:33;;;;;;;;;;;;;;;;;;5019419;28;19940;-71
2022/04/05 03:47:59;;;;;;;;;;;;;;;;;;5021943;28;20374;-71
2022/04/05 03:50:25;;;;;;;;;;;;;;;;;;5022389;28;19920;-71
2022/04/05 03:52:51;;;;;;;;;;;;;;;;;;5022374;28;19927;-71
2022/04/05 03:55:17;;;;;;;;;;;;;;;;;;5019342;28;20361;-71
2022/04/05 03:57:43;;;;;;;;;;;;;;;;;;5024237;28;19925;-70
2022/04/05 10:03:08;;;;;;;9.38;2.88;;;;;;;;;;5044771;28;20921;-67
2022/04/05 10:05:35;;;;;;;8.90;2.38;;;;;;;;;;5048779;28;20087;-68
2022/04/05 10:08:01;;;;;;;9.85;2.42;;;;;;;;;;5047865;28;20035;-68
2022/04/05 10:10:28;;;;;;;9.13;3.28;;;;;;;;;;5045520;28;20033;-68
2022/04/05 10:12:54;;;;;;;9.05;3.60;;;;;;;;;;5050745;28;20391;-69
2022/04/05 10:15:21;;;;;;;7.78;2.00;;;;;;;;;;5044177;28;20037;-68
2022/04/05 10:17:49;;;;;;;8.27;1.88;;;;;;;;;;5047630;28;20028;-66
2022/04/05 10:20:17;;;;;;;6.10;1.70;;;;;;;;;;5039912;28;20075;-71
2022/04/05 10:22:44;;;;;;;6.85;1.67;;;;;;;;;;5043332;28;20055;-70
2022/04/05 10:25:11;;;;;;;9.60;2.00;;;;;;;;;;5044405;28;20029;-69
2022/04/05 10:27:37;;;;;;;8.52;2.03;;;;;;;;;;5047775;28;20033;-68
2022/04/05 10:30:03;;;;;;;;;;;;;;;;;;5049476;28;20358;-70
2022/04/05 10:32:34;;;;;;;6.25;1.65;;;;;;;;;;5045864;28;19931;-70
2022/04/05 10:35:05;;;;;;;7.68;1.80;;;;;;;;;;5049214;28;20211;-71
2022/04/05 10:37:31;;;;;;;6.70;1.88;;;;;;;;;;5041947;28;20517;-71
2022/04/05 10:39:57;;;;;;;;;;;;;;;;;;5052713;28;20559;-71
2022/04/05 10:42:25;;;;;;;6.45;1.92;;;;;;;;;;5049835;28;19917;-71
2022/04/05 10:45:08;;;;;;;12.52;3.25;;;;;;;;;;5050061;28;20025;-70
2022/04/05 10:47:55;;;;;;;11.13;3.30;;;;;;;;;;5051302;28;20410;-71
2022/04/05 10:50:21;;;;;;;7.90;2.40;;;;;;;;;;5045842;28;20032;-71
2022/04/05 10:52:48;;;;;;;6.32;1.60;;;;;;;;;;5045763;28;20360;-71
2022/04/05 10:55:20;;;;;;;5.60;1.40;;;;;;;;;;5047043;28;20424;-71
2022/04/05 10:57:46;;;;;;;7.13;2.10;;;;;;;;;;5039671;28;20033;-71
2022/04/05 11:00:14;;;;;;;;;;;;;;;;;;5048050;28;20441;-70
2022/04/05 11:02:47;;;;;;;7.03;1.75;;;;;;;;;;5047376;28;20295;-68
2022/04/05 11:05:13;;;;;;;9.35;2.05;;;;;;;;;;5038897;28;20036;-69
2022/04/05 11:08:07;;;;;;;9.10;1.95;;;;;;;;;;5045368;28;20079;-72
2022/04/05 11:10:39;;;;;;;7.18;1.60;;;;;;;;;;5031155;28;20055;-71
2022/04/05 11:13:10;;;;;;;5.53;1.40;;;;;;;;;;5051996;28;20086;-71
2022/04/05 11:15:40;;;;;;;6.40;2.10;;;;;;;;;;5037229;28;20057;-70
2022/04/05 11:18:06;;;;;;;7.45;2.53;;;;;;;;;;5032821;28;20159;-69
2022/04/05 11:20:32;;;;;;;9.00;2.10;;;;;;;;;;5034558;28;20484;-71
2022/04/05 11:23:00;;;;;;;5.47;1.50;;;;;;;;;;5031874;28;20037;-68
2022/04/05 11:25:28;;;;;;;14.27;5.28;;;;;;;;;;5027756;28;20086;-71
2022/04/05 11:27:55;;;;;;;11.25;3.95;;;;;;;;;;5038071;28;20029;-69
2022/04/05 11:30:26;;;;;;;13.10;1.80;;;;;;;;;;5033114;28;20329;-70
2022/04/05 11:33:17;;;;;;;9.68;1.50;;;;;;;;;;5039026;28;20049;-70
2022/04/05 11:35:44;;;;;;;12.98;2.40;;;;;;;;;;5036529;28;20477;-71
2022/04/05 11:38:26;;;;;;;8.15;1.65;;;;;;;;;;5031170;28;20061;-71
2022/04/05 11:41:04;;;;;;;6.78;1.70;;;;;;;;;;5034091;28;20140;-69
2022/04/05 11:43:30;;;;;;;9.90;1.77;;;;;;;;;;5039097;28;20896;-68
2022/04/05 11:46:00;;;;;;;7.07;1.40;;;;;;;;;;5031443;28;20234;-71
2022/04/05 11:48:27;;;;;;;6.72;1.35;;;;;;;;;;5034135;28;20392;-71
2022/04/05 11:50:54;;;;;;;8.43;1.52;;;;;;;;;;5036353;28;20025;-70
2022/04/05 11:53:21;;;;;;;5.28;1.20;;;;;;;;;;5032373;28;20037;-71
2022/04/05 11:56:08;;;;;;;7.75;1.67;;;;;;;;;;5031031;28;20040;-71
2022/04/05 11:58:36;;;;;;;7.90;1.80;;;;;;;;;;5030866;28;20044;-71
2022/04/05 12:01:04;;;;;;;5.88;1.40;;;;;;;;;;5033702;28;20499;-69
2022/04/05 12:03:50;;;;;;;4.82;1.30;;;;;;;;;;5024813;28;20602;-72
2022/04/05 12:06:20;;;;;;;7.35;1.40;;;;;;;;;;5022304;28;20044;-70
2022/04/05 12:08:48;;;;;;;9.60;1.67;;;;;;;;;;5034651;28;20029;-68
2022/04/05 12:11:16;;;;;;;15.55;4.95;;;;;;;;;;5027150;28;20469;-70
2022/04/05 12:13:51;;;;;;;5.53;1.80;;;;;;;;;;5041086;28;20028;-70
2022/04/05 12:16:17;;;;;;;6.82;1.52;;;;;;;;;;5020874;28;20025;-70
2022/04/05 12:18:43;;;;;;;10.00;1.40;;;;;;;;;;5041745;28;20033;-68
2022/04/05 12:21:10;;;;;;;8.50;1.50;;;;;;;;;;5022801;28;20333;-68
2022/04/05 12:23:38;;;;;;;5.97;1.30;;;;;;;;;;5028184;28;20372;-69
2022/04/05 12:26:09;;;;;;;7.18;1.70;;;;;;;;;;5041735;28;20028;-71
2022/04/05 12:28:45;;;;;;;4.65;1.30;;;;;;;;;;5031455;28;20025;-70
2022/04/05 12:31:11;;;;;;;;;;;;;;;;;;5039283;28;20338;-71
2022/04/05 12:33:39;;;;;;;6.37;1.87;;;;;;;;;;5033110;28;20524;-70
2022/04/05 12:36:06;;;;;;;6.05;1.73;;;;;;;;;;5031213;28;20032;-67
2022/04/05 12:38:33;;;;;;;10.75;1.42;;;;;;;;;;5025464;28;20770;-68
2022/04/05 12:41:02;;;;;;;8.82;1.70;;;;;;;;;;5029066;28;20124;-69
2022/04/05 12:43:28;;;;;;;6.03;1.60;;;;;;;;;;5029079;28;20048;-69
2022/04/05 12:45:55;;;;;;;4.15;1.00;;;;;;;;;;5037089;28;20090;-69
2022/04/05 12:48:21;;;;;;;6.43;1.60;;;;;;;;;;5025070;28;20028;-70
2022/04/05 12:50:51;;;;;;;6.97;1.30;;;;;;;;;;5035237;28;20411;-70
2022/04/05 12:53:25;;;;;;;6.38;1.58;;;;;;;;;;5019250;28;20087;-70
2022/04/05 12:56:02;;;;;;;3.58;1.15;;;;;;;;;;5018601;28;20021;-69
2022/04/05 12:58:35;;;;;;;5.70;1.30;;;;;;;;;;5019215;28;20025;-69
2022/04/05 13:01:01;;;;;;;5.03;1.40;;;;;;;;;;5036966;28;20160;-70
2022/04/05 13:03:32;;;;;;;7.53;1.25;;;;;;;;;;5030360;28;20028;-70
2022/04/05 13:08:43;;;;;;;6.43;1.65;;;;;;;;;;5018295;28;20127;-69
2022/04/05 13:11:33;;;;;;;5.60;1.35;;;;;;;;;;5026498;28;20135;-71
2022/04/05 13:14:08;;;;;;;5.25;1.48;;;;;;;;;;5024622;28;20040;-69
2022/04/05 13:16:35;;;;;;;7.20;1.60;;;;;;;;;;5021847;28;20425;-69
2022/04/05 13:19:21;;;;;;;9.02;2.08;;;;;;;;;;5038551;28;20149;-69
2022/04/05 13:21:49;;;;;;;6.82;1.80;;;;;;;;;;5026051;28;20394;-69
2022/04/05 13:24:15;;;;;;;6.47;2.65;;;;;;;;;;5024066;28;20534;-69
2022/04/05 13:26:46;;;;;;;5.97;1.50;;;;;;;;;;5020957;28;20520;-69
2022/04/05 13:29:12;;;;;;;5.47;1.35;;;;;;;;;;5031402;28;20032;-69
2022/04/05 13:32:00;;;;;;;6.10;2.13;;;;;;;;;;5034389;28;20481;-69
2022/04/05 13:34:27;;;;;;;7.50;1.90;;;;;;;;;;5025913;28;20554;-69
2022/04/05 13:36:54;;;;;;;6.22;1.80;;;;;;;;;;5024884;28;20536;-68
2022/04/05 13:39:21;;;;;;;8.13;2.95;;;;;;;;;;5016247;28;20017;-67
2022/04/05 13:41:48;;;;;;;7.72;2.28;;;;;;;;;;5020352;28;20044;-67
2022/04/05 13:44:14;;;;;;;11.85;1.85;;;;;;;;;;5023284;28;20128;-66
2022/04/05 13:46:41;;;;;;;9.85;3.78;;;;;;;;;;5024159;28;20075;-67
2022/04/05 13:49:09;;;;;;;9.48;3.00;;;;;;;;;;5029329;28;20606;-68
2022/04/05 13:51:36;;;;;;;47.22;4.30;;;;;;;;;;5030106;28;20090;-70
2022/04/05 13:54:03;;;;;;;12.45;5.18;;;;;;;;;;5020502;28;20067;-69
2022/04/05 13:56:29;;;;;;;7.68;3.00;;;;;;;;;;5025923;28;20099;-69
2022/04/05 13:58:56;;;;;;;8.90;2.60;;;;;;;;;;5038805;28;20102;-69
2022/04/05 14:01:23;;;;;;;11.63;3.10;;;;;;;;;;5027245;28;20051;-69
2022/04/05 14:03:50;;;;;;;9.40;2.65;;;;;;;;;;5026098;28;20368;-69
2022/04/05 14:06:16;;;;;;;7.97;2.35;;;;;;;;;;5020095;28;20163;-69
2022/04/05 14:08:43;;;;;;;7.50;2.55;;;;;;;;;;5020865;28;20586;-69
2022/04/05 14:11:09;;;;;;;9.27;4.85;;;;;;;;;;5026739;28;20479;-70
2022/04/05 14:13:36;;;;;;;7.70;2.90;;;;;;;;;;5014193;28;20025;-71
2022/04/05 14:16:02;;;;;;;6.45;2.40;;;;;;;;;;5022055;28;20095;-71
2022/04/05 14:18:29;;;;;;;7.68;2.65;;;;;;;;;;5018650;28;20065;-69
2022/04/05 14:20:55;;;;;;;9.57;2.90;;;;;;;;;;5021783;28;20135;-70
2022/04/05 14:23:21;;;;;;;6.93;2.20;;;;;;;;;;5018239;28;20107;-71
2022/04/05 14:25:47;;;;;;;8.65;2.50;;;;;;;;;;5024273;28;20029;-71
2022/04/05 14:28:13;;;;;;;12.52;3.65;;;;;;;;;;5015615;28;20403;-71
2022/04/05 14:30:40;;;;;;;9.93;3.03;;;;;;;;;;5022189;28;20453;-70
2022/04/05 14:33:07;;;;;;;10.32;2.60;;;;;;;;;;5021652;28;20026;-70
2022/04/05 14:35:33;;;;;;;7.85;2.90;;;;;;;;;;5012068;28;20033;-69
2022/04/05 14:38:00;;;;;;;10.65;2.90;;;;;;;;;;5026611;28;20025;-69
2022/04/05 14:40:26;;;;;;;10.35;3.53;;;;;;;;;;5018558;28;20174;-69
2022/04/05 14:42:53;;;;;;;8.57;2.55;;;;;;;;;;5024257;28;20467;-71
2022/04/05 14:45:20;;;;;;;8.65;2.53;;;;;;;;;;5016494;28;20037;-70
2022/04/05 14:47:46;;;;;;;6.85;2.78;;;;;;;;;;5022135;28;20033;-69
2022/04/05 14:50:13;;;;;;;11.63;3.17;;;;;;;;;;5021476;28;20032;-69
2022/04/05 14:52:40;;;;;;;11.07;2.75;;;;;;;;;;5029228;28;20033;-69
2022/04/05 14:55:06;;;;;;;9.38;2.70;;;;;;;;;;5021963;28;20041;-69
2022/04/05 14:57:33;;;;;;;8.15;2.63;;;;;;;;;;5024739;28;20503;-70
2022/04/05 14:59:59;;;;;;;6.43;2.05;;;;;;;;;;5028672;28;20118;-68
2022/04/05 15:02:25;;;;;;;;;;;;;;;;;;5017859;28;20077;-69
2022/04/05 15:04:51;;;;;;;13.20;2.30;;;;;;;;;;5025268;28;20019;-69
2022/04/05 15:07:17;;;;;;;7.22;2.50;;;;;;;;;;5021807;28;20510;-70
2022/04/05 15:09:43;;;;;;;;;;;;;;;;;;5025587;28;20114;-69
2022/04/05 15:12:09;;;;;;;9.05;3.13;;;;;;;;;;5022000;28;19913;-70
2022/04/05 15:14:35;;;;;;;14.85;7.22;;;;;;;;;;5015680;28;20534;-69
2022/04/05 15:17:03;;;;;;;12.63;4.03;;;;;;;;;;5025977;28;20056;-69
2022/04/05 15:19:29;;;;;;;10.75;3.38;;;;;;;;;;5023306;28;20064;-69
2022/04/05 15:21:55;;;;;;;;;;;;;;;;;;5026781;28;20071;-69
2022/04/05 15:24:21;;;;;;;8.23;2.65;;;;;;;;;;5021832;28;19917;-69
2022/04/05 15:26:48;;;;;;;12.27;3.10;;;;;;;;;;5029574;28;20103;-68
2022/04/05 15:29:14;;;;;;;8.63;2.30;;;;;;;;;;5026907;28;20017;-68
2022/04/05 15:31:40;;;;;;;;;;;;;;;;;;5025209;28;20559;-69
2022/04/05 15:34:06;;;;;;;7.47;2.50;;;;;;;;;;5029134;28;19916;-69
2022/04/05 15:36:33;;;;;;;11.13;4.00;;;;;;;;;;5027443;28;20034;-68
2022/04/05 15:38:59;;;;;;;11.20;2.97;;;;;;;;;;5026064;28;20041;-69
2022/04/05 15:41:27;;;;;;;9.20;2.72;;;;;;;;;;5018792;28;20708;-69
2022/04/05 15:43:53;;;;;;;7.88;2.53;;;;;;;;;;5027551;28;20040;-69
2022/04/05 15:46:19;;;;;;;7.85;2.40;;;;;;;;;;5022901;28;20024;-70
2022/04/05 15:48:45;;;;;;;;;;;;;;;;;;5031675;28;20040;-70
2022/04/05 15:51:12;;;;;;;11.30;3.30;;;;;;;;;;5027627;28;20434;-70
2022/04/05 15:53:37;;;;;;;;;;;;;;;;;;5031756;28;20104;-70
2022/04/05 15:56:04;;;;;;;9.23;2.70;;;;;;;;;;5023008;28;20367;-70
2022/04/05 15:58:31;;;;;;;8.55;2.50;;;;;;;;;;5024586;28;22017;-70
2022/04/05 16:00:57;;;;;;;9.25;2.92;;;;;;;;;;5031792;28;20663;-71
2022/04/05 16:03:23;;;;;;;;;;;;;;;;;;5029502;28;20120;-70
2022/04/05 16:05:49;;;;;;;10.85;3.65;;;;;;;;;;5035023;28;19920;-71
2022/04/05 16:08:15;;;;;;;;;;;;;;;;;;5021446;28;20048;-70
2022/04/05 16:10:42;;;;;;;14.65;5.40;;;;;;;;;;5024555;28;20329;-69
2022/04/05 16:13:08;;;;;;;14.55;4.70;;;;;;;;;;5029359;28;20029;-69
2022/04/05 16:15:34;;;;;;;15.20;5.72;;;;;;;;;;5023544;28;20490;-69
2022/04/05 16:18:00;;;;;;;15.50;7.03;;;;;;;;;;5025731;28;20041;-69
2022/04/05 16:20:27;;;;;;;12.90;4.88;;;;;;;;;;5023482;28;20025;-69
2022/04/05 16:22:53;;;;;;;14.05;5.68;;;;;;;;;;5028184;28;20082;-69
2022/04/05 16:25:19;;;;;;;19.05;7.53;;;;;;;;;;5017017;28;20363;-69
2022/04/05 16:27:46;;;;;;;16.20;7.43;;;;;;;;;;5025656;28;20495;-70
2022/04/05 16:30:14;;;;;;;16.25;7.40;;;;;;;;;;5026697;28;20395;-70
2022/04/05 16:32:40;;;;;;;16.35;6.43;;;;;;;;;;5027231;28;20523;-70
2022/04/05 16:35:07;;;;;;;13.93;5.72;;;;;;;;;;5030754;28;20059;-70
2022/04/05 16:37:33;;;;;;;14.27;5.38;;;;;;;;;;5027228;28;20028;-70
2022/04/05 16:40:03;;;;;;;;;;;;;;;;;;5033037;28;20512;-69
2022/04/05 16:42:29;;;;;;;14.35;5.72;;;;;;;;;;5028283;28;19923;-69
2022/04/05 16:44:56;;;;;;;16.05;7.05;;;;;;;;;;5033448;28;20037;-69
2022/04/05 16:47:22;;;;;;;16.40;6.53;;;;;;;;;;5020790;28;20475;-68
2022/04/05 16:49:49;;;;;;;11.90;4.88;;;;;;;;;;5021721;28;20094;-69
2022/04/05 16:52:16;;;;;;;13.27;5.82;;;;;;;;;;5020221;28;20051;-69
2022/04/05 16:54:42;;;;;;;13.80;5.60;;;;;;;;;;5025487;28;20431;-69
2022/04/05 16:57:10;;;;;;;15.13;6.15;;;;;;;;;;5024399;28;20028;-69
2022/04/05 16:59:37;;;;;;;14.40;4.75;;;;;;;;;;5022643;28;20567;-70
2022/04/05 17:02:03;;;;;;;15.45;6.28;;;;;;;;;;5027838;28;20049;-70
2022/04/05 17:04:29;;;;;;;19.25;8.82;;;;;;;;;;5024008;28;20358;-70
2022/04/05 17:06:56;;;;;;;21.73;10.88;;;;;;;;;;5030339;28;20513;-70
2022/04/05 17:09:22;;;;;;;27.52;12.05;;;;;;;;;;5027035;28;20028;-70
2022/04/05 17:11:49;;;;;;;18.38;8.13;;;;;;;;;;5026160;28;20060;-70
2022/04/05 17:14:15;;;;;;;17.55;7.40;;;;;;;;;;5025658;28;20047;-69
2022/04/05 17:16:42;;;;;;;14.27;6.03;;;;;;;;;;5028879;28;20040;-69
2022/04/05 17:19:08;;;;;;;14.32;5.88;;;;;;;;;;5024004;28;20080;-70
2022/04/05 17:21:35;;;;;;;13.77;5.85;;;;;;;;;;5021521;28;20725;-70
2022/04/05 17:24:01;;;;;;;14.15;6.38;;;;;;;;;;5024847;28;20491;-69
2022/04/05 17:26:27;;;;;;;16.33;6.30;;;;;;;;;;5021898;28;20412;-70
2022/04/05 17:28:53;;;;;;;14.40;7.10;;;;;;;;;;5025942;28;20471;-69
2022/04/05 17:31:20;;;;;;;15.57;6.63;;;;;;;;;;5023060;28;20420;-69
2022/04/05 17:33:46;;;;;;;;;;;;;;;;;;5017357;28;20037;-71
2022/04/05 17:36:25;;;;;;;17.23;6.55;;;;;;;;;;5103528;22;20033;-68
2022/04/05 17:38:51;;;;;;;14.30;6.03;;;;;;;;;;5005519;28;20029;-68
2022/04/05 17:41:18;;;;;;;13.80;5.90;;;;;;;;;;5004539;28;20128;-67
2022/04/05 17:43:47;;;;;;;13.30;6.30;;;;;;;;;;5007581;28;20544;-68
2022/04/05 17:46:13;;;;;;;13.32;5.25;;;;;;;;;;5005314;28;20030;-68
2022/04/05 17:48:39;;;;;;;14.77;6.60;;;;;;;;;;5006638;28;20032;-69
2022/04/05 17:51:05;;;;;;;;;;;;;;;;;;5007150;28;20071;-69
2022/04/05 17:53:43;;;;;;;23.10;10.73;;;;;;;;;;5016099;28;19924;-70
2022/04/05 17:56:15;;;;;;;20.27;9.07;;;;;;;;;;5032948;23;20053;-64
2022/04/05 17:58:42;;;;;;;15.25;7.50;;;;;;;;;;5030447;28;20270;-64
2022/04/05 18:01:08;;;;;;;14.98;7.32;;;;;;;;;;5038687;28;20028;-64
2022/04/05 18:03:37;;;;;;;16.42;7.63;;;;;;;;;;5037073;28;20097;-65
2022/04/05 18:06:03;;;;;;;21.15;7.68;;;;;;;;;;5042887;28;21188;-65
2022/04/05 18:08:29;;;;;;;25.50;15.18;;;;;;;;;;5033983;28;20052;-65
2022/04/05 18:10:57;;;;;;;22.50;9.88;;;;;;;;;;5039365;28;20024;-65
2022/04/05 18:13:23;;;;;;;17.60;8.30;;;;;;;;;;5037825;28;20032;-64
2022/04/05 18:15:49;;;;;;;18.95;8.93;;;;;;;;;;5039134;28;20311;-65
2022/04/05 18:18:15;;;;;;;33.65;19.83;;;;;;;;;;5033281;28;20110;-64
2022/04/05 18:20:43;;;;;;;37.47;22.70;;;;;;;;;;5034369;28;20849;-69
2022/04/05 18:23:09;;;;;;;21.98;10.70;;;;;;;;;;5029566;28;20139;-70
2022/04/05 18:25:35;;;;;;;15.73;7.60;;;;;;;;;;5035523;28;20032;-68
2022/04/05 18:28:01;;;;;;;17.65;9.48;;;;;;;;;;5031755;28;20025;-70
2022/04/05 18:30:27;;;;;;;17.52;7.80;;;;;;;;;;5030875;28;20032;-69
2022/04/05 18:32:54;;;;;;;16.45;7.70;;;;;;;;;;5040837;28;20036;-70
2022/04/05 18:35:20;;;;;;;15.10;7.13;;;;;;;;;;5031267;28;20112;-70
2022/04/05 18:37:46;;;;;;;16.13;8.20;;;;;;;;;;5037691;28;20036;-70
2022/04/05 18:40:12;;;;;;;17.60;7.28;;;;;;;;;;5035804;28;20024;-68
2022/04/05 18:42:42;;;;;;;17.83;7.68;;;;;;;;;;5040340;28;20094;-70
2022/04/05 18:45:10;;;;;;;17.38;7.97;;;;;;;;;;5043044;28;20496;-69
2022/04/05 18:47:37;;;;;;;19.60;7.80;;;;;;;;;;5040980;28;20557;-68
2022/04/05 18:50:03;;;;;;;;;;;;;;;;;;5042165;28;20497;-70
2022/04/05 18:52:29;;;;;;;28.35;16.88;;;;;;;;;;5034403;28;19912;-69
2022/04/05 18:54:55;;;;;;;29.08;17.63;;;;;;;;;;5051703;28;20040;-69
2022/04/05 18:57:21;;;;;;;39.88;22.05;;;;;;;;;;5029674;28;20120;-69
2022/04/05 18:59:48;;;;;;;53.88;27.35;;;;;;;;;;5024512;28;20138;-69
2022/04/05 19:02:14;;;;;;;51.28;31.17;;;;;;;;;;5028909;28;20033;-69
2022/04/05 19:04:41;;;;;;;33.17;19.23;;;;;;;;;;5031626;28;20406;-69
2022/04/05 19:07:10;;;;;;;27.30;17.33;;;;;;;;;;5034476;28;20128;-69
2022/04/05 19:09:38;;;;;;;29.10;15.18;;;;;;;;;;5054520;28;20056;-69
2022/04/05 19:12:05;;;;;;;24.77;13.35;;;;;;;;;;5029230;28;20020;-69
2022/04/05 19:14:31;;;;;;;27.63;16.98;;;;;;;;;;5024412;28;20941;-68
2022/04/05 19:16:57;;;;;;;24.40;11.65;;;;;;;;;;5022301;28;20038;-70
2022/04/05 19:19:26;;;;;;;22.83;10.73;;;;;;;;;;5028410;28;20029;-70
2022/04/05 19:21:52;;;;;;;21.52;11.93;;;;;;;;;;5035673;28;20050;-68
2022/04/05 19:24:18;;;;;;;22.05;10.88;;;;;;;;;;5035673;28;20028;-69
2022/04/05 19:26:45;;;;;;;23.23;12.50;;;;;;;;;;5031226;28;20037;-69
2022/04/05 19:29:11;;;;;;;18.50;10.85;;;;;;;;;;5026970;28;20036;-70
2022/04/05 19:31:38;;;;;;;20.35;10.38;;;;;;;;;;5033191;28;20310;-69
2022/04/05 19:34:04;;;;;;;22.35;11.70;;;;;;;;;;5035815;28;20083;-70
2022/04/05 19:36:30;;;;;;;19.55;11.20;;;;;;;;;;5026714;28;20036;-68
2022/04/05 19:38:56;;;;;;;21.17;10.50;;;;;;;;;;5039216;28;20387;-68
2022/04/05 19:41:23;;;;;;;24.80;11.45;;;;;;;;;;5032748;28;20075;-69
2022/04/05 19:43:49;;;;;;;19.00;9.20;;;;;;;;;;5030478;28;20487;-69
2022/04/05 19:46:16;;;;;;;18.77;9.35;;;;;;;;;;5021509;28;20075;-68
2022/04/05 19:48:44;;;;;;;21.33;10.57;;;;;;;;;;5032919;28;20662;-69
2022/04/05 19:51:11;;;;;;;32.20;19.70;;;;;;;;;;5024715;28;20033;-69
2022/04/05 19:53:37;;;;;;;24.00;14.55;;;;;;;;;;5029603;28;20028;-68
2022/04/05 19:56:03;;;;;;;20.55;10.43;;;;;;;;;;5031532;28;20037;-68
2022/04/05 19:58:29;;;;;;;21.63;10.95;;;;;;;;;;5027770;28;20024;-67
2022/04/05 20:00:56;;;;;;;18.92;10.02;;;;;;;;;;5037274;28;20029;-68
2022/04/05 20:03:22;;;;;;;20.10;10.98;;;;;;;;;;5025615;28;20320;-70
2022/04/05 20:05:48;;;;;;;;;;;;;;;;;;5022054;28;20025;-68
2022/04/05 20:08:15;;;;;;;23.17;12.23;;;;;;;;;;5024979;28;19978;-68
2022/04/05 20:10:41;;;;;;;31.45;19.90;;;;;;;;;;5026288;28;20036;-68
2022/04/05 20:13:07;;;;;;;29.20;17.00;;;;;;;;;;5014745;28;20151;-68
2022/04/05 20:15:34;;;;;;;18.05;10.32;;;;;;;;;;5028035;28;20140;-68
2022/04/05 20:20:46;;;;;;;16.73;8.73;;;;;;;;;;5026502;28;20057;-68
2022/04/05 20:23:12;;;;;;;17.50;8.63;;;;;;;;;;5025290;28;20581;-68
2022/04/05 20:25:38;;;;;;;15.98;8.95;;;;;;;;;;5018595;28;20037;-68
2022/04/05 20:28:05;;;;;;;16.90;10.48;;;;;;;;;;5024167;28;20032;-68
2022/04/05 20:30:31;;;;;;;;;;;;;;;;;;5023249;28;20029;-69
2022/04/05 20:32:57;;;;;;;19.00;10.13;;;;;;;;;;5046521;28;19960;-68
2022/04/05 20:35:23;;;;;;;16.67;9.23;;;;;;;;;;5027746;28;20052;-68
2022/04/05 20:37:49;;;;;;;17.20;8.80;;;;;;;;;;5023753;28;20464;-68
2022/04/05 20:40:16;;;;;;;16.15;8.75;;;;;;;;;;5027618;28;20106;-68
2022/04/05 20:42:42;;;;;;;14.85;7.85;;;;;;;;;;5024842;28;20033;-68
2022/04/05 20:45:08;;;;;;;;;;;;;;;;;;5024956;28;20558;-68
2022/04/05 20:47:34;;;;;;;15.57;7.35;;;;;;;;;;5024313;28;20362;-68
2022/04/05 20:50:01;;;;;;;15.82;7.60;;;;;;;;;;5027531;28;20059;-67
2022/04/05 20:52:27;;;;;;;;;;;;;;;;;;5029313;28;20041;-68
2022/04/05 20:54:53;;;;;;;13.65;6.45;;;;;;;;;;5028624;28;19982;-67
2022/04/05 20:57:21;;;;;;;14.27;6.68;;;;;;;;;;5027373;28;20045;-69
2022/04/05 20:59:52;;;;;;;13.65;6.72;;;;;;;;;;5029635;28;20120;-67
2022/04/05 21:02:19;;;;;;;12.07;6.00;;;;;;;;;;5019223;28;20033;-68
2022/04/05 21:04:45;;;;;;;12.45;6.88;;;;;;;;;;5016579;28;20044;-68
2022/04/05 21:07:15;;;;;;;17.92;7.88;;;;;;;;;;5020671;28;20029;-68
2022/04/05 21:09:41;;;;;;;19.48;8.30;;;;;;;;;;5025302;28;20121;-68
2022/04/05 21:12:08;;;;;;;15.23;8.63;;;;;;;;;;5043879;28;20028;-69
2022/04/05 21:14:34;;;;;;;13.65;7.15;;;;;;;;;;5024900;28;20029;-68
2022/04/05 21:17:00;;;;;;;;;;;;;;;;;;5034446;28;20446;-68
2022/04/05 21:19:31;;;;;;;19.55;12.20;;;;;;;;;;5023896;28;19918;-69
2022/04/05 21:21:57;;;;;;;27.35;15.70;;;;;;;;;;5021038;28;20044;-68